sensor_id;sensor_type;location;lat;lon;timestamp;P1;durP1;ratioP1;P2;durP2;ratioP2
27013;SDS011;14556;52.222;4.510;2023-03-14T00:00:57;12.97;;;2.53;;
27013;SDS011;14556;52.222;4.510;2023-03-14T00:03:23;5.27;;;1.40;;
27013;SDS011;14556;52.222;4.510;2023-03-14T00:05:49;10.47;;;1.43;;
27013;SDS011;14556;52.222;4.510;2023-03-14T00:08:16;22.93;;;1.53;;
27013;SDS011;14556;52.222;4.510;2023-03-14T00:10:42;12.20;;;1.87;;
27013;SDS011;14556;52.222;4.510;2023-03-14T00:13:09;11.77;;;1.53;;
27013;SDS011;14556;52.222;4.510;2023-03-14T00:15:35;7.30;;;1.67;;
27013;SDS011;14556;52.222;4.510;2023-03-14T00:18:02;7.67;;;1.40;;
27013;SDS011;14556;52.222;4.510;2023-03-14T00:20:28;9.50;;;1.50;;
27013;SDS011;14556;52.222;4.510;2023-03-14T00:22:54;10.43;;;1.30;;
27013;SDS011;14556;52.222;4.510;2023-03-14T00:25:20;6.37;;;1.23;;
27013;SDS011;14556;52.222;4.510;2023-03-14T00:27:49;10.63;;;2.50;;
27013;SDS011;14556;52.222;4.510;2023-03-14T00:30:16;22.17;;;2.40;;
27013;SDS011;14556;52.222;4.510;2023-03-14T00:32:42;13.13;;;2.10;;
27013;SDS011;14556;52.222;4.510;2023-03-14T00:35:09;11.33;;;2.00;;
27013;SDS011;14556;52.222;4.510;2023-03-14T00:37:35;8.93;;;1.33;;
27013;SDS011;14556;52.222;4.510;2023-03-14T00:40:02;13.77;;;1.63;;
27013;SDS011;14556;52.222;4.510;2023-03-14T00:42:31;13.60;;;2.73;;
27013;SDS011;14556;52.222;4.510;2023-03-14T00:44:58;8.60;;;1.70;;
27013;SDS011;14556;52.222;4.510;2023-03-14T00:47:24;8.73;;;1.43;;
27013;SDS011;14556;52.222;4.510;2023-03-14T00:49:50;10.57;;;1.70;;
27013;SDS011;14556;52.222;4.510;2023-03-14T00:52:17;13.07;;;2.10;;
27013;SDS011;14556;52.222;4.510;2023-03-14T00:54:43;8.93;;;1.43;;
27013;SDS011;14556;52.222;4.510;2023-03-14T00:57:09;10.33;;;1.90;;
27013;SDS011;14556;52.222;4.510;2023-03-14T00:59:36;11.57;;;2.53;;
27013;SDS011;14556;52.222;4.510;2023-03-14T01:02:02;18.93;;;3.07;;
27013;SDS011;14556;52.222;4.510;2023-03-14T01:04:29;9.27;;;1.83;;
27013;SDS011;14556;52.222;4.510;2023-03-14T01:06:56;15.70;;;2.57;;
27013;SDS011;14556;52.222;4.510;2023-03-14T01:09:23;11.40;;;2.00;;
27013;SDS011;14556;52.222;4.510;2023-03-14T01:11:49;12.60;;;1.70;;
27013;SDS011;14556;52.222;4.510;2023-03-14T01:14:15;11.90;;;2.17;;
27013;SDS011;14556;52.222;4.510;2023-03-14T01:16:42;11.97;;;2.33;;
27013;SDS011;14556;52.222;4.510;2023-03-14T01:19:08;15.27;;;1.97;;
27013;SDS011;14556;52.222;4.510;2023-03-14T01:21:36;12.57;;;2.67;;
27013;SDS011;14556;52.222;4.510;2023-03-14T01:24:03;13.73;;;2.03;;
27013;SDS011;14556;52.222;4.510;2023-03-14T01:26:31;9.87;;;2.23;;
27013;SDS011;14556;52.222;4.510;2023-03-14T01:28:58;13.37;;;2.30;;
27013;SDS011;14556;52.222;4.510;2023-03-14T01:31:25;15.23;;;2.70;;
27013;SDS011;14556;52.222;4.510;2023-03-14T01:33:51;16.50;;;2.60;;
27013;SDS011;14556;52.222;4.510;2023-03-14T01:36:18;16.53;;;3.00;;
27013;SDS011;14556;52.222;4.510;2023-03-14T01:38:45;13.67;;;2.37;;
27013;SDS011;14556;52.222;4.510;2023-03-14T01:41:14;14.37;;;2.80;;
27013;SDS011;14556;52.222;4.510;2023-03-14T01:43:41;18.90;;;2.37;;
27013;SDS011;14556;52.222;4.510;2023-03-14T01:54:11;11.20;;;2.10;;
27013;SDS011;14556;52.222;4.510;2023-03-14T01:56:38;7.20;;;1.37;;
27013;SDS011;14556;52.222;4.510;2023-03-14T01:59:06;19.63;;;2.37;;
27013;SDS011;14556;52.222;4.510;2023-03-14T02:01:33;15.13;;;2.07;;
27013;SDS011;14556;52.222;4.510;2023-03-14T02:04:01;15.67;;;3.33;;
27013;SDS011;14556;52.222;4.510;2023-03-14T02:06:50;9.13;;;1.90;;
27013;SDS011;14556;52.222;4.510;2023-03-14T02:09:14;12.00;;;2.20;;
27013;SDS011;14556;52.222;4.510;2023-03-14T02:11:41;12.33;;;1.60;;
27013;SDS011;14556;52.222;4.510;2023-03-14T02:14:08;13.03;;;2.40;;
27013;SDS011;14556;52.222;4.510;2023-03-14T02:16:36;16.47;;;2.00;;
27013;SDS011;14556;52.222;4.510;2023-03-14T02:19:02;8.83;;;1.83;;
27013;SDS011;14556;52.222;4.510;2023-03-14T02:21:42;18.20;;;2.53;;
27013;SDS011;14556;52.222;4.510;2023-03-14T02:24:21;9.90;;;2.67;;
27013;SDS011;14556;52.222;4.510;2023-03-14T02:29:32;4.53;;;1.43;;
27013;SDS011;14556;52.222;4.510;2023-03-14T02:31:59;16.53;;;2.80;;
27013;SDS011;14556;52.222;4.510;2023-03-14T02:34:26;13.77;;;1.70;;
27013;SDS011;14556;52.222;4.510;2023-03-14T02:36:52;7.90;;;1.30;;
27013;SDS011;14556;52.222;4.510;2023-03-14T02:39:24;8.50;;;1.90;;
27013;SDS011;14556;52.222;4.510;2023-03-14T02:41:53;4.47;;;1.03;;
27013;SDS011;14556;52.222;4.510;2023-03-14T02:44:20;6.33;;;1.27;;
27013;SDS011;14556;52.222;4.510;2023-03-14T02:46:46;7.43;;;1.63;;
27013;SDS011;14556;52.222;4.510;2023-03-14T02:49:13;8.60;;;2.00;;
27013;SDS011;14556;52.222;4.510;2023-03-14T02:51:40;9.70;;;2.00;;
27013;SDS011;14556;52.222;4.510;2023-03-14T02:54:07;9.90;;;1.80;;
27013;SDS011;14556;52.222;4.510;2023-03-14T02:56:34;10.60;;;2.07;;
27013;SDS011;14556;52.222;4.510;2023-03-14T02:59:02;11.43;;;1.60;;
27013;SDS011;14556;52.222;4.510;2023-03-14T03:01:29;13.13;;;2.07;;
27013;SDS011;14556;52.222;4.510;2023-03-14T03:03:55;8.43;;;1.67;;
27013;SDS011;14556;52.222;4.510;2023-03-14T03:06:21;9.20;;;1.97;;
27013;SDS011;14556;52.222;4.510;2023-03-14T03:08:48;6.67;;;2.37;;
27013;SDS011;14556;52.222;4.510;2023-03-14T03:11:14;8.57;;;1.97;;
27013;SDS011;14556;52.222;4.510;2023-03-14T03:13:41;10.37;;;2.33;;
27013;SDS011;14556;52.222;4.510;2023-03-14T03:16:07;7.27;;;2.20;;
27013;SDS011;14556;52.222;4.510;2023-03-14T03:18:34;4.60;;;1.50;;
27013;SDS011;14556;52.222;4.510;2023-03-14T03:21:01;6.13;;;1.97;;
27013;SDS011;14556;52.222;4.510;2023-03-14T03:23:27;8.30;;;2.50;;
27013;SDS011;14556;52.222;4.510;2023-03-14T03:25:54;6.60;;;2.00;;
27013;SDS011;14556;52.222;4.510;2023-03-14T03:28:21;3.13;;;1.20;;
27013;SDS011;14556;52.222;4.510;2023-03-14T03:30:48;7.27;;;1.90;;
27013;SDS011;14556;52.222;4.510;2023-03-14T03:33:14;11.23;;;2.17;;
27013;SDS011;14556;52.222;4.510;2023-03-14T03:35:44;9.97;;;2.23;;
27013;SDS011;14556;52.222;4.510;2023-03-14T03:38:11;10.17;;;2.00;;
27013;SDS011;14556;52.222;4.510;2023-03-14T03:40:38;8.80;;;2.37;;
27013;SDS011;14556;52.222;4.510;2023-03-14T03:43:04;9.73;;;2.23;;
27013;SDS011;14556;52.222;4.510;2023-03-14T03:45:31;11.87;;;2.30;;
27013;SDS011;14556;52.222;4.510;2023-03-14T03:47:58;14.73;;;2.47;;
27013;SDS011;14556;52.222;4.510;2023-03-14T03:50:24;9.10;;;2.43;;
27013;SDS011;14556;52.222;4.510;2023-03-14T03:52:50;9.40;;;2.73;;
27013;SDS011;14556;52.222;4.510;2023-03-14T03:55:17;5.33;;;1.87;;
27013;SDS011;14556;52.222;4.510;2023-03-14T03:57:43;9.30;;;2.57;;
27013;SDS011;14556;52.222;4.510;2023-03-14T04:00:10;6.80;;;2.37;;
27013;SDS011;14556;52.222;4.510;2023-03-14T04:02:38;8.57;;;2.60;;
27013;SDS011;14556;52.222;4.510;2023-03-14T04:05:04;10.90;;;3.10;;
27013;SDS011;14556;52.222;4.510;2023-03-14T04:07:32;7.27;;;2.00;;
27013;SDS011;14556;52.222;4.510;2023-03-14T04:09:58;8.70;;;2.47;;
27013;SDS011;14556;52.222;4.510;2023-03-14T04:12:24;11.20;;;2.50;;
27013;SDS011;14556;52.222;4.510;2023-03-14T04:14:51;11.87;;;2.60;;
27013;SDS011;14556;52.222;4.510;2023-03-14T04:17:17;12.47;;;2.27;;
27013;SDS011;14556;52.222;4.510;2023-03-14T04:19:44;7.30;;;2.73;;
27013;SDS011;14556;52.222;4.510;2023-03-14T04:22:12;5.83;;;2.20;;
27013;SDS011;14556;52.222;4.510;2023-03-14T04:24:38;8.53;;;2.60;;
27013;SDS011;14556;52.222;4.510;2023-03-14T04:27:05;5.60;;;2.50;;
27013;SDS011;14556;52.222;4.510;2023-03-14T04:29:31;7.90;;;2.30;;
27013;SDS011;14556;52.222;4.510;2023-03-14T04:31:57;10.60;;;2.27;;
27013;SDS011;14556;52.222;4.510;2023-03-14T04:34:24;5.73;;;2.20;;
27013;SDS011;14556;52.222;4.510;2023-03-14T04:36:50;8.00;;;2.90;;
27013;SDS011;14556;52.222;4.510;2023-03-14T04:39:16;10.87;;;2.40;;
27013;SDS011;14556;52.222;4.510;2023-03-14T04:41:43;11.50;;;2.33;;
27013;SDS011;14556;52.222;4.510;2023-03-14T04:44:10;3.70;;;2.00;;
27013;SDS011;14556;52.222;4.510;2023-03-14T04:46:36;9.00;;;2.60;;
27013;SDS011;14556;52.222;4.510;2023-03-14T04:49:02;5.60;;;2.60;;
27013;SDS011;14556;52.222;4.510;2023-03-14T04:51:29;4.73;;;1.87;;
27013;SDS011;14556;52.222;4.510;2023-03-14T04:53:55;6.50;;;2.23;;
27013;SDS011;14556;52.222;4.510;2023-03-14T04:56:23;4.47;;;1.73;;
27013;SDS011;14556;52.222;4.510;2023-03-14T04:58:49;6.50;;;2.13;;
27013;SDS011;14556;52.222;4.510;2023-03-14T05:01:15;7.73;;;2.17;;
27013;SDS011;14556;52.222;4.510;2023-03-14T05:03:44;4.60;;;2.00;;
27013;SDS011;14556;52.222;4.510;2023-03-14T05:06:10;6.30;;;2.20;;
27013;SDS011;14556;52.222;4.510;2023-03-14T05:08:37;4.80;;;1.83;;
27013;SDS011;14556;52.222;4.510;2023-03-14T05:11:03;6.53;;;1.87;;
27013;SDS011;14556;52.222;4.510;2023-03-14T05:13:30;5.37;;;1.77;;
27013;SDS011;14556;52.222;4.510;2023-03-14T05:16:03;10.63;;;2.20;;
27013;SDS011;14556;52.222;4.510;2023-03-14T05:18:29;8.07;;;1.77;;
27013;SDS011;14556;52.222;4.510;2023-03-14T05:20:56;11.13;;;2.23;;
27013;SDS011;14556;52.222;4.510;2023-03-14T05:23:22;5.20;;;1.47;;
27013;SDS011;14556;52.222;4.510;2023-03-14T05:25:49;12.03;;;2.07;;
27013;SDS011;14556;52.222;4.510;2023-03-14T05:28:15;4.67;;;1.17;;
27013;SDS011;14556;52.222;4.510;2023-03-14T05:30:41;8.90;;;1.63;;
27013;SDS011;14556;52.222;4.510;2023-03-14T05:33:08;6.77;;;1.00;;
27013;SDS011;14556;52.222;4.510;2023-03-14T05:35:34;10.90;;;1.30;;
27013;SDS011;14556;52.222;4.510;2023-03-14T05:38:00;9.70;;;1.67;;
27013;SDS011;14556;52.222;4.510;2023-03-14T05:40:27;6.07;;;1.07;;
27013;SDS011;14556;52.222;4.510;2023-03-14T05:42:53;3.73;;;0.93;;
27013;SDS011;14556;52.222;4.510;2023-03-14T05:45:20;6.77;;;1.10;;
27013;SDS011;14556;52.222;4.510;2023-03-14T05:47:46;7.00;;;1.00;;
27013;SDS011;14556;52.222;4.510;2023-03-14T05:50:12;10.83;;;1.70;;
27013;SDS011;14556;52.222;4.510;2023-03-14T05:52:39;5.13;;;0.97;;
27013;SDS011;14556;52.222;4.510;2023-03-14T05:55:05;6.23;;;1.07;;
27013;SDS011;14556;52.222;4.510;2023-03-14T05:57:32;7.03;;;1.13;;
27013;SDS011;14556;52.222;4.510;2023-03-14T05:59:58;7.43;;;1.50;;
27013;SDS011;14556;52.222;4.510;2023-03-14T06:02:24;5.43;;;1.20;;
27013;SDS011;14556;52.222;4.510;2023-03-14T06:04:51;5.77;;;0.97;;
27013;SDS011;14556;52.222;4.510;2023-03-14T06:07:18;4.87;;;0.77;;
27013;SDS011;14556;52.222;4.510;2023-03-14T06:09:44;8.07;;;1.20;;
27013;SDS011;14556;52.222;4.510;2023-03-14T06:12:10;5.27;;;0.70;;
27013;SDS011;14556;52.222;4.510;2023-03-14T06:14:37;4.53;;;0.80;;
27013;SDS011;14556;52.222;4.510;2023-03-14T06:17:03;7.63;;;0.90;;
27013;SDS011;14556;52.222;4.510;2023-03-14T06:19:29;5.30;;;1.00;;
27013;SDS011;14556;52.222;4.510;2023-03-14T06:21:56;3.97;;;0.83;;
27013;SDS011;14556;52.222;4.510;2023-03-14T06:24:23;7.60;;;1.20;;
27013;SDS011;14556;52.222;4.510;2023-03-14T06:26:49;9.50;;;1.17;;
27013;SDS011;14556;52.222;4.510;2023-03-14T06:29:15;5.30;;;1.83;;
27013;SDS011;14556;52.222;4.510;2023-03-14T06:31:42;6.63;;;1.00;;
27013;SDS011;14556;52.222;4.510;2023-03-14T06:34:08;6.97;;;1.00;;
27013;SDS011;14556;52.222;4.510;2023-03-14T06:36:35;5.17;;;0.87;;
27013;SDS011;14556;52.222;4.510;2023-03-14T06:39:01;3.17;;;0.93;;
27013;SDS011;14556;52.222;4.510;2023-03-14T06:41:28;7.27;;;0.80;;
27013;SDS011;14556;52.222;4.510;2023-03-14T06:43:54;4.57;;;1.00;;
27013;SDS011;14556;52.222;4.510;2023-03-14T06:46:22;8.30;;;1.03;;
27013;SDS011;14556;52.222;4.510;2023-03-14T06:48:48;3.47;;;0.70;;
27013;SDS011;14556;52.222;4.510;2023-03-14T06:51:15;6.73;;;1.83;;
27013;SDS011;14556;52.222;4.510;2023-03-14T06:53:41;9.13;;;1.20;;
27013;SDS011;14556;52.222;4.510;2023-03-14T06:56:08;7.77;;;1.37;;
27013;SDS011;14556;52.222;4.510;2023-03-14T06:58:34;10.97;;;1.00;;
27013;SDS011;14556;52.222;4.510;2023-03-14T07:01:01;7.13;;;1.23;;
27013;SDS011;14556;52.222;4.510;2023-03-14T07:03:27;8.03;;;1.20;;
27013;SDS011;14556;52.222;4.510;2023-03-14T07:05:54;4.67;;;0.67;;
27013;SDS011;14556;52.222;4.510;2023-03-14T07:08:20;9.77;;;0.90;;
27013;SDS011;14556;52.222;4.510;2023-03-14T07:10:47;6.47;;;1.27;;
27013;SDS011;14556;52.222;4.510;2023-03-14T07:13:13;6.13;;;1.00;;
27013;SDS011;14556;52.222;4.510;2023-03-14T07:15:39;2.50;;;0.80;;
27013;SDS011;14556;52.222;4.510;2023-03-14T07:18:06;5.70;;;1.00;;
27013;SDS011;14556;52.222;4.510;2023-03-14T07:20:32;2.60;;;0.87;;
27013;SDS011;14556;52.222;4.510;2023-03-14T07:22:58;9.17;;;1.63;;
27013;SDS011;14556;52.222;4.510;2023-03-14T07:25:29;9.57;;;1.30;;
27013;SDS011;14556;52.222;4.510;2023-03-14T07:27:56;6.47;;;1.20;;
27013;SDS011;14556;52.222;4.510;2023-03-14T07:30:23;1.57;;;0.57;;
27013;SDS011;14556;52.222;4.510;2023-03-14T07:32:50;8.60;;;1.50;;
27013;SDS011;14556;52.222;4.510;2023-03-14T07:35:18;5.83;;;0.80;;
27013;SDS011;14556;52.222;4.510;2023-03-14T07:37:44;8.27;;;1.20;;
27013;SDS011;14556;52.222;4.510;2023-03-14T07:40:11;4.57;;;0.70;;
27013;SDS011;14556;52.222;4.510;2023-03-14T07:42:41;9.30;;;1.20;;
27013;SDS011;14556;52.222;4.510;2023-03-14T07:45:08;4.50;;;1.10;;
27013;SDS011;14556;52.222;4.510;2023-03-14T07:47:35;12.07;;;1.67;;
27013;SDS011;14556;52.222;4.510;2023-03-14T07:50:03;6.57;;;1.03;;
27013;SDS011;14556;52.222;4.510;2023-03-14T07:52:29;6.03;;;1.20;;
27013;SDS011;14556;52.222;4.510;2023-03-14T07:54:56;6.37;;;1.07;;
27013;SDS011;14556;52.222;4.510;2023-03-14T07:57:22;9.83;;;1.47;;
27013;SDS011;14556;52.222;4.510;2023-03-14T07:59:50;9.20;;;1.07;;
27013;SDS011;14556;52.222;4.510;2023-03-14T08:02:16;7.30;;;1.20;;
27013;SDS011;14556;52.222;4.510;2023-03-14T08:04:44;7.90;;;1.23;;
27013;SDS011;14556;52.222;4.510;2023-03-14T08:07:10;11.53;;;1.23;;
27013;SDS011;14556;52.222;4.510;2023-03-14T08:09:36;4.50;;;0.50;;
27013;SDS011;14556;52.222;4.510;2023-03-14T08:12:03;4.40;;;0.70;;
27013;SDS011;14556;52.222;4.510;2023-03-14T08:14:29;1.93;;;0.43;;
27013;SDS011;14556;52.222;4.510;2023-03-14T08:16:56;3.67;;;0.67;;
27013;SDS011;14556;52.222;4.510;2023-03-14T08:19:23;2.83;;;0.83;;
27013;SDS011;14556;52.222;4.510;2023-03-14T08:21:50;9.40;;;1.17;;
27013;SDS011;14556;52.222;4.510;2023-03-14T08:24:16;8.03;;;0.70;;
27013;SDS011;14556;52.222;4.510;2023-03-14T08:26:42;3.07;;;0.90;;
27013;SDS011;14556;52.222;4.510;2023-03-14T08:29:09;4.17;;;0.90;;
27013;SDS011;14556;52.222;4.510;2023-03-14T08:31:35;4.40;;;0.93;;
27013;SDS011;14556;52.222;4.510;2023-03-14T08:34:02;9.80;;;1.20;;
27013;SDS011;14556;52.222;4.510;2023-03-14T08:36:28;8.43;;;1.60;;
27013;SDS011;14556;52.222;4.510;2023-03-14T08:38:55;12.73;;;1.50;;
27013;SDS011;14556;52.222;4.510;2023-03-14T08:41:21;9.00;;;1.00;;
27013;SDS011;14556;52.222;4.510;2023-03-14T08:43:47;6.90;;;1.53;;
27013;SDS011;14556;52.222;4.510;2023-03-14T08:46:14;7.73;;;1.80;;
27013;SDS011;14556;52.222;4.510;2023-03-14T08:48:40;10.13;;;1.50;;
27013;SDS011;14556;52.222;4.510;2023-03-14T08:51:10;11.07;;;1.43;;
27013;SDS011;14556;52.222;4.510;2023-03-14T08:53:38;18.07;;;2.17;;
27013;SDS011;14556;52.222;4.510;2023-03-14T08:56:05;13.73;;;1.80;;
27013;SDS011;14556;52.222;4.510;2023-03-14T08:58:32;15.30;;;2.20;;
27013;SDS011;14556;52.222;4.510;2023-03-14T09:00:59;13.77;;;2.00;;
27013;SDS011;14556;52.222;4.510;2023-03-14T09:03:25;20.53;;;2.10;;
27013;SDS011;14556;52.222;4.510;2023-03-14T09:05:52;12.87;;;2.10;;
27013;SDS011;14556;52.222;4.510;2023-03-14T09:08:18;10.87;;;1.80;;
27013;SDS011;14556;52.222;4.510;2023-03-14T09:10:44;19.37;;;2.43;;
27013;SDS011;14556;52.222;4.510;2023-03-14T09:13:11;10.90;;;1.90;;
27013;SDS011;14556;52.222;4.510;2023-03-14T09:15:37;9.00;;;2.03;;
27013;SDS011;14556;52.222;4.510;2023-03-14T09:18:05;11.27;;;2.50;;
27013;SDS011;14556;52.222;4.510;2023-03-14T09:20:31;15.43;;;2.07;;
27013;SDS011;14556;52.222;4.510;2023-03-14T09:22:57;18.30;;;2.43;;
27013;SDS011;14556;52.222;4.510;2023-03-14T09:25:23;15.40;;;2.30;;
27013;SDS011;14556;52.222;4.510;2023-03-14T09:27:50;11.40;;;2.17;;
27013;SDS011;14556;52.222;4.510;2023-03-14T09:30:16;12.10;;;1.97;;
27013;SDS011;14556;52.222;4.510;2023-03-14T09:32:43;19.90;;;3.27;;
27013;SDS011;14556;52.222;4.510;2023-03-14T09:35:10;21.97;;;2.60;;
27013;SDS011;14556;52.222;4.510;2023-03-14T09:37:36;16.67;;;3.37;;
27013;SDS011;14556;52.222;4.510;2023-03-14T09:40:03;11.10;;;2.07;;
27013;SDS011;14556;52.222;4.510;2023-03-14T09:42:35;11.87;;;2.03;;
27013;SDS011;14556;52.222;4.510;2023-03-14T09:45:03;18.87;;;2.20;;
27013;SDS011;14556;52.222;4.510;2023-03-14T09:47:32;10.83;;;2.10;;
27013;SDS011;14556;52.222;4.510;2023-03-14T09:50:00;15.57;;;2.03;;
27013;SDS011;14556;52.222;4.510;2023-03-14T09:52:31;17.47;;;2.50;;
27013;SDS011;14556;52.222;4.510;2023-03-14T09:55:00;14.63;;;3.10;;
27013;SDS011;14556;52.222;4.510;2023-03-14T09:57:30;18.07;;;2.43;;
27013;SDS011;14556;52.222;4.510;2023-03-14T10:00:00;13.80;;;2.13;;
27013;SDS011;14556;52.222;4.510;2023-03-14T10:02:34;18.63;;;2.37;;
27013;SDS011;14556;52.222;4.510;2023-03-14T10:05:01;15.07;;;2.80;;
27013;SDS011;14556;52.222;4.510;2023-03-14T10:07:32;10.73;;;2.00;;
27013;SDS011;14556;52.222;4.510;2023-03-14T10:09:59;16.37;;;2.40;;
27013;SDS011;14556;52.222;4.510;2023-03-14T10:12:32;11.80;;;2.03;;
27013;SDS011;14556;52.222;4.510;2023-03-14T10:15:02;13.07;;;2.50;;
27013;SDS011;14556;52.222;4.510;2023-03-14T10:17:29;16.83;;;2.37;;
27013;SDS011;14556;52.222;4.510;2023-03-14T10:19:57;22.50;;;2.50;;
27013;SDS011;14556;52.222;4.510;2023-03-14T10:22:24;17.33;;;2.10;;
27013;SDS011;14556;52.222;4.510;2023-03-14T10:24:54;21.60;;;3.40;;
27013;SDS011;14556;52.222;4.510;2023-03-14T10:27:28;15.57;;;1.90;;
27013;SDS011;14556;52.222;4.510;2023-03-14T10:29:59;11.07;;;1.93;;
27013;SDS011;14556;52.222;4.510;2023-03-14T10:32:32;12.33;;;1.80;;
27013;SDS011;14556;52.222;4.510;2023-03-14T10:37:51;20.53;;;2.43;;
27013;SDS011;14556;52.222;4.510;2023-03-14T10:40:18;14.90;;;2.00;;
27013;SDS011;14556;52.222;4.510;2023-03-14T10:42:45;11.20;;;2.20;;
27013;SDS011;14556;52.222;4.510;2023-03-14T10:47:49;4.83;;;1.37;;
27013;SDS011;14556;52.222;4.510;2023-03-14T10:50:23;11.60;;;2.43;;
27013;SDS011;14556;52.222;4.510;2023-03-14T10:52:51;9.97;;;1.80;;
27013;SDS011;14556;52.222;4.510;2023-03-14T10:55:40;13.27;;;2.53;;
27013;SDS011;14556;52.222;4.510;2023-03-14T11:00:47;7.83;;;1.20;;
27013;SDS011;14556;52.222;4.510;2023-03-14T11:03:15;5.73;;;1.83;;
27013;SDS011;14556;52.222;4.510;2023-03-14T11:08:14;13.60;;;1.87;;
27013;SDS011;14556;52.222;4.510;2023-03-14T11:10:45;11.90;;;1.90;;
27013;SDS011;14556;52.222;4.510;2023-03-14T11:16:01;13.60;;;1.43;;
27013;SDS011;14556;52.222;4.510;2023-03-14T11:28:47;10.27;;;1.67;;
27013;SDS011;14556;52.222;4.510;2023-03-14T11:31:28;11.03;;;2.03;;
27013;SDS011;14556;52.222;4.510;2023-03-14T11:34:05;6.70;;;1.63;;
27013;SDS011;14556;52.222;4.510;2023-03-14T11:36:41;6.10;;;1.50;;
27013;SDS011;14556;52.222;4.510;2023-03-14T11:39:11;13.20;;;1.47;;
27013;SDS011;14556;52.222;4.510;2023-03-14T11:41:40;14.13;;;1.73;;
27013;SDS011;14556;52.222;4.510;2023-03-14T11:44:18;14.53;;;1.63;;
27013;SDS011;14556;52.222;4.510;2023-03-14T11:51:46;8.33;;;1.23;;
27013;SDS011;14556;52.222;4.510;2023-03-14T11:54:47;12.20;;;1.67;;
27013;SDS011;14556;52.222;4.510;2023-03-14T11:57:09;6.73;;;1.40;;
27013;SDS011;14556;52.222;4.510;2023-03-14T12:02:17;7.03;;;2.33;;
27013;SDS011;14556;52.222;4.510;2023-03-14T12:07:44;8.33;;;1.37;;
27013;SDS011;14556;52.222;4.510;2023-03-14T12:10:17;6.47;;;1.70;;
27013;SDS011;14556;52.222;4.510;2023-03-14T12:12:44;5.80;;;1.00;;
27013;SDS011;14556;52.222;4.510;2023-03-14T12:15:18;7.47;;;1.37;;
27013;SDS011;14556;52.222;4.510;2023-03-14T12:17:45;7.33;;;1.20;;
27013;SDS011;14556;52.222;4.510;2023-03-14T12:20:16;8.23;;;1.07;;
27013;SDS011;14556;52.222;4.510;2023-03-14T12:22:44;7.20;;;1.27;;
27013;SDS011;14556;52.222;4.510;2023-03-14T12:27:45;5.80;;;0.90;;
27013;SDS011;14556;52.222;4.510;2023-03-14T12:32:41;6.83;;;0.93;;
27013;SDS011;14556;52.222;4.510;2023-03-14T12:37:53;6.60;;;1.07;;
27013;SDS011;14556;52.222;4.510;2023-03-14T12:40:26;6.70;;;1.00;;
27013;SDS011;14556;52.222;4.510;2023-03-14T12:43:00;3.73;;;0.80;;
27013;SDS011;14556;52.222;4.510;2023-03-14T12:45:28;4.80;;;0.93;;
27013;SDS011;14556;52.222;4.510;2023-03-14T12:48:37;8.00;;;1.20;;
27013;SDS011;14556;52.222;4.510;2023-03-14T12:53:37;6.57;;;1.30;;
27013;SDS011;14556;52.222;4.510;2023-03-14T12:56:07;7.40;;;1.80;;
27013;SDS011;14556;52.222;4.510;2023-03-14T13:01:06;9.67;;;1.67;;
27013;SDS011;14556;52.222;4.510;2023-03-14T13:06:11;7.37;;;1.63;;
27013;SDS011;14556;52.222;4.510;2023-03-14T13:08:42;6.50;;;1.13;;
27013;SDS011;14556;52.222;4.510;2023-03-14T13:11:12;4.20;;;0.77;;
27013;SDS011;14556;52.222;4.510;2023-03-14T13:13:42;7.30;;;1.07;;
27013;SDS011;14556;52.222;4.510;2023-03-14T13:16:14;4.23;;;1.40;;
27013;SDS011;14556;52.222;4.510;2023-03-14T13:18:48;7.57;;;0.97;;
27013;SDS011;14556;52.222;4.510;2023-03-14T13:21:15;11.13;;;1.30;;
27013;SDS011;14556;52.222;4.510;2023-03-14T13:24:00;8.60;;;1.77;;
27013;SDS011;14556;52.222;4.510;2023-03-14T13:26:37;14.13;;;1.33;;
27013;SDS011;14556;52.222;4.510;2023-03-14T13:29:08;5.20;;;0.90;;
27013;SDS011;14556;52.222;4.510;2023-03-14T13:31:35;9.47;;;1.30;;
27013;SDS011;14556;52.222;4.510;2023-03-14T13:34:02;6.53;;;0.83;;
27013;SDS011;14556;52.222;4.510;2023-03-14T13:36:31;9.17;;;1.20;;
27013;SDS011;14556;52.222;4.510;2023-03-14T13:39:00;7.70;;;1.10;;
27013;SDS011;14556;52.222;4.510;2023-03-14T13:41:30;9.93;;;1.73;;
27013;SDS011;14556;52.222;4.510;2023-03-14T13:43:58;5.33;;;1.23;;
27013;SDS011;14556;52.222;4.510;2023-03-14T13:46:27;7.33;;;1.37;;
27013;SDS011;14556;52.222;4.510;2023-03-14T13:48:57;7.27;;;0.70;;
27013;SDS011;14556;52.222;4.510;2023-03-14T13:51:24;6.70;;;0.80;;
27013;SDS011;14556;52.222;4.510;2023-03-14T13:53:54;8.10;;;1.07;;
27013;SDS011;14556;52.222;4.510;2023-03-14T13:56:21;7.43;;;0.87;;
27013;SDS011;14556;52.222;4.510;2023-03-14T13:58:49;9.77;;;1.30;;
27013;SDS011;14556;52.222;4.510;2023-03-14T14:01:19;6.63;;;1.03;;
27013;SDS011;14556;52.222;4.510;2023-03-14T14:03:47;4.60;;;0.87;;
27013;SDS011;14556;52.222;4.510;2023-03-14T14:06:28;10.80;;;1.83;;
27013;SDS011;14556;52.222;4.510;2023-03-14T14:08:55;8.40;;;1.50;;
27013;SDS011;14556;52.222;4.510;2023-03-14T14:11:34;7.03;;;1.70;;
27013;SDS011;14556;52.222;4.510;2023-03-14T14:16:46;7.77;;;1.10;;
27013;SDS011;14556;52.222;4.510;2023-03-14T14:19:13;4.27;;;0.83;;
27013;SDS011;14556;52.222;4.510;2023-03-14T14:21:41;6.70;;;0.97;;
27013;SDS011;14556;52.222;4.510;2023-03-14T14:24:10;7.87;;;1.30;;
27013;SDS011;14556;52.222;4.510;2023-03-14T14:27:23;6.13;;;1.00;;
27013;SDS011;14556;52.222;4.510;2023-03-14T14:29:29;6.80;;;0.97;;
27013;SDS011;14556;52.222;4.510;2023-03-14T14:31:59;4.47;;;0.83;;
27013;SDS011;14556;52.222;4.510;2023-03-14T14:34:26;3.97;;;1.03;;
27013;SDS011;14556;52.222;4.510;2023-03-14T14:36:53;7.37;;;1.47;;
27013;SDS011;14556;52.222;4.510;2023-03-14T14:39:21;4.37;;;1.03;;
27013;SDS011;14556;52.222;4.510;2023-03-14T14:41:49;6.37;;;1.83;;
27013;SDS011;14556;52.222;4.510;2023-03-14T14:44:18;5.40;;;1.20;;
27013;SDS011;14556;52.222;4.510;2023-03-14T14:46:45;5.63;;;0.87;;
27013;SDS011;14556;52.222;4.510;2023-03-14T14:49:15;4.43;;;0.90;;
27013;SDS011;14556;52.222;4.510;2023-03-14T14:51:47;6.10;;;0.97;;
27013;SDS011;14556;52.222;4.510;2023-03-14T14:54:18;7.27;;;1.00;;
27013;SDS011;14556;52.222;4.510;2023-03-14T14:56:49;10.27;;;1.40;;
27013;SDS011;14556;52.222;4.510;2023-03-14T14:59:26;5.13;;;1.20;;
27013;SDS011;14556;52.222;4.510;2023-03-14T15:01:56;8.57;;;1.50;;
27013;SDS011;14556;52.222;4.510;2023-03-14T15:04:23;3.90;;;1.27;;
27013;SDS011;14556;52.222;4.510;2023-03-14T15:06:50;6.40;;;0.90;;
27013;SDS011;14556;52.222;4.510;2023-03-14T15:09:19;8.83;;;1.60;;
27013;SDS011;14556;52.222;4.510;2023-03-14T15:11:46;4.03;;;0.90;;
27013;SDS011;14556;52.222;4.510;2023-03-14T15:14:13;6.87;;;0.87;;
27013;SDS011;14556;52.222;4.510;2023-03-14T15:16:40;4.80;;;0.93;;
27013;SDS011;14556;52.222;4.510;2023-03-14T15:19:25;3.93;;;1.00;;
27013;SDS011;14556;52.222;4.510;2023-03-14T15:21:52;5.23;;;0.80;;
27013;SDS011;14556;52.222;4.510;2023-03-14T15:24:19;4.77;;;1.07;;
27013;SDS011;14556;52.222;4.510;2023-03-14T15:26:45;12.47;;;1.00;;
27013;SDS011;14556;52.222;4.510;2023-03-14T15:29:11;5.43;;;1.10;;
27013;SDS011;14556;52.222;4.510;2023-03-14T15:31:39;14.10;;;1.30;;
27013;SDS011;14556;52.222;4.510;2023-03-14T15:34:06;9.33;;;1.20;;
27013;SDS011;14556;52.222;4.510;2023-03-14T15:36:33;8.30;;;1.10;;
27013;SDS011;14556;52.222;4.510;2023-03-14T15:39:00;5.80;;;0.90;;
27013;SDS011;14556;52.222;4.510;2023-03-14T15:41:26;4.90;;;0.63;;
27013;SDS011;14556;52.222;4.510;2023-03-14T15:43:53;2.47;;;0.60;;
27013;SDS011;14556;52.222;4.510;2023-03-14T15:46:20;8.67;;;0.80;;
27013;SDS011;14556;52.222;4.510;2023-03-14T15:48:48;8.53;;;0.90;;
27013;SDS011;14556;52.222;4.510;2023-03-14T15:51:15;8.37;;;1.20;;